Time;durP1;ratioP1;P1;durP2;ratioP2;P2;SDS_P1;SDS_P2;PMS_P1;PMS_P2;Temp;Humidity;BMP_temperature;BMP_pressure;BME280_temperature;BME280_humidity;BME280_pressure;Samples;Min_cycle;Max_cycle;Signal;HPM_P1;HPM_P2
2022/10/04 00:00:10;;;;;;;0.10;0.10;;;;;;;9.49;100.00;102236.53;10328099;28;20030;-73
2022/10/04 00:05:17;;;;;;;0.10;0.10;;;;;;;9.49;100.00;102237.38;10340199;28;20104;-74
2022/10/04 00:10:22;;;;;;;0.10;0.10;;;;;;;9.48;100.00;102229.50;10360916;28;20033;-74
2022/10/04 00:15:32;;;;;;;0.10;0.10;;;;;;;9.46;100.00;102232.28;10367351;28;20009;-74
2022/10/04 00:20:52;;;;;;;0.08;0.08;;;;;;;9.43;100.00;102232.50;10353204;28;20026;-73
2022/10/04 00:25:57;;;;;;;0.00;0.00;;;;;;;9.39;100.00;102225.72;10341567;28;20014;-74
2022/10/04 00:31:23;;;;;;;0.10;0.10;;;;;;;9.38;100.00;102232.00;10367328;28;20026;-74
2022/10/04 00:36:23;;;;;;;0.00;0.00;;;;;;;9.38;100.00;102218.72;10367199;28;20481;-73
2022/10/04 00:41:25;;;;;;;0.10;0.10;;;;;;;9.38;100.00;102210.75;10348104;28;20035;-73
2022/10/04 00:46:29;;;;;;;0.03;0.03;;;;;;;9.37;100.00;102218.84;10359081;28;20054;-73
2022/10/04 00:51:32;;;;;;;0.00;0.00;;;;;;;9.38;100.00;102208.09;10349082;28;20088;-73
2022/10/04 00:56:38;;;;;;;0.10;0.10;;;;;;;9.41;100.00;102197.19;10326626;28;20097;-74
2022/10/04 01:01:39;;;;;;;0.10;0.10;;;;;;;9.40;100.00;102200.84;10326032;28;20018;-73
2022/10/04 01:06:40;;;;;;;0.10;0.10;;;;;;;9.39;100.00;102199.13;10326453;28;20463;-73
2022/10/04 01:11:51;;;;;;;0.10;0.10;;;;;;;9.39;100.00;102193.81;10325276;28;20113;-73
2022/10/04 01:16:52;;;;;;;0.00;0.00;;;;;;;9.40;100.00;102186.69;10341706;28;20401;-73
2022/10/04 01:22:10;;;;;;;0.00;0.00;;;;;;;9.44;100.00;102186.31;10362361;28;20013;-73
2022/10/04 01:27:41;;;;;;;0.00;0.00;;;;;;;9.44;100.00;102177.50;10374388;28;20482;-73
2022/10/04 01:32:42;;;;;;;0.10;0.10;;;;;;;9.45;100.00;102172.09;10354446;28;20489;-73
2022/10/04 01:37:42;;;;;;;0.08;0.08;;;;;;;9.45;100.00;102165.88;10350394;28;20022;-73
2022/10/04 01:42:49;;;;;;;0.10;0.10;;;;;;;9.43;100.00;102166.03;10332802;28;20018;-73
2022/10/04 01:48:00;;;;;;;0.00;0.00;;;;;;;9.42;100.00;102166.13;10331239;28;20022;-73
2022/10/04 01:53:17;;;;;;;0.00;0.00;;;;;;;9.42;100.00;102169.63;10346310;28;20527;-73
2022/10/04 01:58:29;;;;;;;0.00;0.00;;;;;;;9.45;100.00;102161.44;10373197;28;20100;-73
2022/10/04 02:03:36;;;;;;;0.10;0.10;;;;;;;9.48;100.00;102170.97;10372681;28;20022;-73
2022/10/04 02:08:43;;;;;;;0.10;0.10;;;;;;;9.54;100.00;102167.88;10371422;28;20029;-73
2022/10/04 02:13:45;;;;;;;0.10;0.10;;;;;;;9.56;100.00;102147.28;10340562;28;20049;-73
2022/10/04 02:18:46;;;;;;;0.00;0.00;;;;;;;9.58;100.00;102129.41;10343195;28;20041;-73
2022/10/04 02:23:46;;;;;;;0.10;0.10;;;;;;;9.61;100.00;102136.31;10335326;28;20034;-73
2022/10/04 02:28:47;;;;;;;0.10;0.10;;;;;;;9.59;100.00;102140.88;10330833;28;20034;-73
2022/10/04 02:33:50;;;;;;;0.10;0.10;;;;;;;9.57;100.00;102135.69;10360667;28;20022;-73
2022/10/04 02:39:15;;;;;;;0.00;0.00;;;;;;;9.54;100.00;102114.66;10338672;28;20030;-73
2022/10/04 02:44:21;;;;;;;0.03;0.03;;;;;;;9.49;100.00;102112.34;10330905;28;20026;-73
2022/10/04 02:49:28;;;;;;;0.00;0.00;;;;;;;9.47;100.00;102100.13;10344495;28;20482;-73
2022/10/04 02:55:03;;;;;;;0.10;0.10;;;;;;;9.40;100.00;102099.78;10359762;28;20165;-73
2022/10/04 03:00:26;;;;;;;0.08;0.08;;;;;;;9.36;100.00;102094.81;10333992;28;20050;-73
2022/10/04 03:05:27;;;;;;;0.10;0.10;;;;;;;9.34;100.00;102094.06;10369561;28;20038;-73
2022/10/04 03:10:27;;;;;;;0.10;0.10;;;;;;;9.34;100.00;102088.75;10370015;28;20025;-73
2022/10/04 03:15:28;;;;;;;0.00;0.00;;;;;;;9.36;100.00;102087.69;10329071;28;20014;-73
2022/10/04 03:20:29;;;;;;;0.10;0.10;;;;;;;9.41;100.00;102088.16;10352279;28;20022;-73
2022/10/04 03:25:40;;;;;;;0.00;0.00;;;;;;;9.44;100.00;102079.94;10324655;28;20014;-73
2022/10/04 03:30:43;;;;;;;0.00;0.00;;;;;;;9.46;100.00;102078.03;10366185;28;20229;-73
2022/10/04 03:35:46;;;;;;;0.00;0.00;;;;;;;9.48;100.00;102083.19;10363798;28;20037;-73
2022/10/04 03:40:52;;;;;;;0.00;0.00;;;;;;;9.52;100.00;102088.16;10326035;28;20503;-73
2022/10/04 03:45:54;;;;;;;0.10;0.10;;;;;;;9.54;100.00;102080.09;10326565;28;20373;-73
2022/10/04 03:50:55;;;;;;;0.00;0.00;;;;;;;9.57;100.00;102087.81;10352135;28;20499;-73
2022/10/04 03:55:57;;;;;;;0.00;0.00;;;;;;;9.59;100.00;102093.00;10368134;28;20025;-73
2022/10/04 04:01:09;;;;;;;0.00;0.00;;;;;;;9.60;100.00;102073.41;10349670;28;20027;-73
2022/10/04 04:06:15;;;;;;;0.10;0.10;;;;;;;9.62;100.00;102077.63;10320635;28;20126;-73
2022/10/04 04:11:23;;;;;;;0.00;0.00;;;;;;;9.62;100.00;102076.78;10351364;28;20022;-73
2022/10/04 04:16:25;;;;;;;0.08;0.08;;;;;;;9.64;100.00;102082.84;10350667;28;20030;-72
2022/10/04 04:21:26;;;;;;;0.10;0.10;;;;;;;9.65;100.00;102065.91;10340605;28;20022;-73
2022/10/04 04:26:38;;;;;;;0.00;0.00;;;;;;;9.65;100.00;102077.38;10357890;28;20034;-73
2022/10/04 04:32:00;;;;;;;0.00;0.00;;;;;;;9.66;100.00;102071.13;10327328;28;20064;-73
2022/10/04 04:37:03;;;;;;;0.10;0.10;;;;;;;9.68;100.00;102071.81;10334882;28;20117;-73
2022/10/04 04:42:15;;;;;;;0.10;0.10;;;;;;;9.70;100.00;102067.22;10349149;28;20022;-73
2022/10/04 04:47:27;;;;;;;0.00;0.00;;;;;;;9.72;100.00;102067.13;10350618;28;20084;-73
2022/10/04 04:52:28;;;;;;;0.00;0.00;;;;;;;9.72;100.00;102065.31;10346723;28;20250;-73
2022/10/04 04:57:29;;;;;;;0.10;0.10;;;;;;;9.76;100.00;102068.56;10356267;28;20081;-73
2022/10/04 05:02:35;;;;;;;0.03;0.03;;;;;;;9.77;100.00;102066.75;10350368;28;20018;-73
2022/10/04 05:07:35;;;;;;;0.00;0.00;;;;;;;9.78;100.00;102065.78;10335793;28;20270;-72
2022/10/04 05:12:36;;;;;;;0.10;0.10;;;;;;;9.79;100.00;102065.66;10330842;28;20429;-73
2022/10/04 05:17:37;;;;;;;0.10;0.10;;;;;;;9.79;100.00;102049.69;10335288;28;20256;-73
2022/10/04 05:22:41;;;;;;;0.03;0.03;;;;;;;9.83;100.00;102047.63;10348342;28;20050;-73
2022/10/04 05:27:43;;;;;;;0.10;0.10;;;;;;;9.81;100.00;102033.59;10357321;28;20030;-73
2022/10/04 05:33:03;;;;;;;0.00;0.00;;;;;;;9.75;100.00;102046.44;10348325;28;20026;-73
2022/10/04 05:38:15;;;;;;;0.10;0.10;;;;;;;9.72;100.00;102054.66;10334159;28;20022;-73
2022/10/04 05:43:21;;;;;;;0.10;0.10;;;;;;;9.69;100.00;102057.56;10335723;28;20015;-73
2022/10/04 05:48:24;;;;;;;0.10;0.10;;;;;;;9.63;100.00;102042.09;10336569;28;20061;-73
2022/10/04 05:53:32;;;;;;;0.10;0.10;;;;;;;9.64;100.00;102042.94;10340914;28;20073;-72
2022/10/04 05:58:44;;;;;;;0.00;0.00;;;;;;;9.62;100.00;102048.38;10344383;28;20053;-72
2022/10/04 06:04:01;;;;;;;0.00;0.00;;;;;;;9.60;100.00;102047.66;10333083;28;20049;-72
2022/10/04 06:09:41;;;;;;;0.10;0.10;;;;;;;9.61;100.00;102048.50;10341973;28;20014;-72
2022/10/04 06:15:16;;;;;;;0.10;0.10;;;;;;;9.74;100.00;102049.19;10353196;28;20034;-73
2022/10/04 06:20:31;;;;;;;0.00;0.00;;;;;;;10.99;100.00;102055.72;10352594;28;20026;-72
2022/10/04 06:25:46;;;;;;;0.10;0.10;;;;;;;12.50;100.00;102052.03;10344419;28;20018;-73
2022/10/04 06:31:23;;;;;;;0.10;0.10;;;;;;;13.72;100.00;102052.09;10329041;28;20026;-73
2022/10/04 06:36:48;;;;;;;0.10;0.10;;;;;;;14.99;100.00;102049.25;10330450;28;20027;-73
2022/10/04 06:41:48;;;;;;;0.10;0.10;;;;;;;15.99;100.00;102061.09;10332450;28;20021;-73
2022/10/04 06:46:58;;;;;;;0.00;0.00;;;;;;;16.72;100.00;102058.44;10350800;28;20385;-74
2022/10/04 06:52:13;;;;;;;0.00;0.00;;;;;;;17.26;100.00;102057.88;10343299;28;20034;-74
2022/10/04 06:57:31;;;;;;;0.03;0.03;;;;;;;17.90;100.00;102049.69;10357229;23;20045;-73
2022/10/04 07:02:48;;;;;;;0.00;0.00;;;;;;;18.54;100.00;102052.91;10349609;28;20088;-73
2022/10/04 07:08:05;;;;;;;0.10;0.10;;;;;;;18.59;100.00;102056.91;10345476;28;20093;-72
2022/10/04 07:13:12;;;;;;;0.00;0.00;;;;;;;16.78;100.00;102058.81;10355079;28;20049;-72
2022/10/04 07:18:38;;;;;;;0.00;0.00;;;;;;;15.46;100.00;102057.69;10315984;28;20503;-72
2022/10/04 07:23:50;;;;;;;0.10;0.10;;;;;;;16.59;100.00;102062.66;10347972;28;20424;-72
2022/10/04 07:34:22;;;;;;;0.00;0.00;;;;;;;17.35;100.00;102066.75;10343774;28;20031;-72
2022/10/04 07:39:39;;;;;;;0.10;0.10;;;;;;;18.45;100.00;102059.41;10355107;28;20101;-72
2022/10/04 07:44:42;;;;;;;0.10;0.10;;;;;;;19.49;100.00;102064.97;10354664;28;20022;-72
2022/10/04 07:49:42;;;;;;;0.00;0.00;;;;;;;18.17;100.00;102067.19;10351219;28;20443;-73
2022/10/04 07:54:52;;;;;;;0.00;0.00;;;;;;;16.89;100.00;102078.13;10351871;28;20077;-72
2022/10/04 08:00:26;;;;;;;0.00;0.00;;;;;;;16.04;100.00;102067.66;10312728;28;20038;-72
2022/10/04 08:05:35;;;;;;;0.00;0.00;;;;;;;15.62;100.00;102059.63;10335585;28;20018;-72
2022/10/04 08:10:45;;;;;;;0.00;0.00;;;;;;;15.36;100.00;102057.84;10335228;28;20021;-72
2022/10/04 08:15:46;;;;;;;0.00;0.00;;;;;;;15.24;100.00;102063.63;10350683;28;20120;-72
2022/10/04 08:21:20;;;;;;;0.00;0.00;;;;;;;15.28;100.00;102065.00;10355391;28;20547;-72
2022/10/04 08:26:58;;;;;;;0.10;0.10;;;;;;;15.59;100.00;102067.97;10312934;28;20030;-72
2022/10/04 08:32:18;;;;;;;0.10;0.10;;;;;;;15.85;100.00;102059.88;10335221;28;20073;-72
2022/10/04 08:37:30;;;;;;;0.08;0.08;;;;;;;15.58;100.00;102063.63;10348650;28;20061;-72
2022/10/04 08:43:18;;;;;;;0.00;0.00;;;;;;;15.39;100.00;102060.19;10343034;28;20026;-72
2022/10/04 08:48:42;;;;;;;0.10;0.10;;;;;;;15.20;100.00;102060.44;10331278;28;20037;-72
2022/10/04 08:54:34;;;;;;;0.00;0.00;;;;;;;15.07;100.00;102049.28;10341313;28;20018;-72
2022/10/04 09:00:05;;;;;;;0.10;0.10;;;;;;;15.06;100.00;102056.47;10275056;28;20097;-72
2022/10/04 09:05:26;;;;;;;0.10;0.10;;;;;;;15.15;100.00;102054.69;10338352;28;20014;-72
2022/10/04 09:10:44;;;;;;;0.03;0.03;;;;;;;15.20;100.00;102047.00;10335255;28;20409;-72
2022/10/04 09:16:03;;;;;;;0.10;0.10;;;;;;;15.29;100.00;102045.19;10350588;28;20045;-72
2022/10/04 09:21:15;;;;;;;0.08;0.08;;;;;;;15.35;100.00;102034.66;10343160;28;20388;-72
2022/10/04 09:26:32;;;;;;;0.10;0.10;;;;;;;15.39;100.00;102040.56;10356988;28;20469;-71
2022/10/04 09:31:54;;;;;;;0.00;0.00;;;;;;;15.39;100.00;102036.03;10373559;28;20032;-71
2022/10/04 09:37:31;;;;;;;0.10;0.10;;;;;;;15.42;100.00;102023.25;10376514;28;20484;-71
2022/10/04 09:43:06;;;;;;;0.10;0.10;;;;;;;15.45;100.00;102034.56;10366533;28;20022;-71
2022/10/04 09:48:26;;;;;;;0.10;0.10;;;;;;;15.55;100.00;102039.78;10336724;28;20417;-73
2022/10/04 09:53:52;;;;;;;0.10;0.10;;;;;;;15.65;100.00;102032.44;10367647;28;20029;-73
2022/10/04 09:59:25;;;;;;;0.10;0.10;;;;;;;15.75;100.00;102035.84;10373960;28;20034;-74
2022/10/04 10:04:46;;;;;;;0.00;0.00;;;;;;;15.84;100.00;102040.22;10366819;28;20030;-73
2022/10/04 10:15:57;;;;;;;0.00;0.00;;;;;;;16.64;100.00;102018.13;10358221;28;20042;-73
2022/10/04 10:21:12;;;;;;;0.00;0.00;;;;;;;17.04;100.00;102016.34;10201729;29;20023;-73
2022/10/04 10:26:34;;;;;;;0.05;0.05;;;;;;;17.20;100.00;102004.72;10314540;28;20034;-73
2022/10/04 10:31:57;;;;;;;0.10;0.10;;;;;;;17.34;100.00;102020.13;10358477;28;20022;-74
2022/10/04 10:37:00;;;;;;;0.10;0.10;;;;;;;17.32;100.00;102002.47;10374289;28;20492;-74
2022/10/04 10:42:26;;;;;;;0.10;0.10;;;;;;;17.25;100.00;102009.56;10367704;28;20038;-74
2022/10/04 10:47:45;;;;;;;0.10;0.10;;;;;;;17.06;100.00;102013.50;10331146;28;20505;-73
2022/10/04 10:53:10;;;;;;;0.10;0.10;;;;;;;17.18;100.00;102010.25;10364544;28;20030;-74
2022/10/04 10:58:36;;;;;;;0.00;0.00;;;;;;;17.36;100.00;102018.09;10372262;28;20041;-73
2022/10/04 11:04:02;;;;;;;0.10;0.10;;;;;;;17.33;100.00;102004.97;10370495;28;20017;-74
2022/10/04 11:09:31;;;;;;;0.00;0.00;;;;;;;17.13;100.00;102009.09;10340810;28;20038;-73
2022/10/04 11:15:14;;;;;;;0.00;0.00;;;;;;;17.34;100.00;102005.84;10366809;28;20018;-73
2022/10/04 11:20:14;;;;;;;0.00;0.00;;;;;;;17.44;100.00;101990.28;10347513;28;20032;-73
2022/10/04 11:25:17;;;;;;;0.00;0.00;;;;;;;17.45;100.00;101983.88;10348483;28;20028;-73
2022/10/04 11:30:25;;;;;;;0.10;0.10;;;;;;;17.52;100.00;101984.88;10346044;28;20018;-73
2022/10/04 11:35:26;;;;;;;0.10;0.10;;;;;;;17.31;100.00;101968.50;10352581;28;20273;-73
2022/10/04 11:40:41;;;;;;;0.10;0.10;;;;;;;17.00;100.00;101977.34;10370769;28;20025;-73
2022/10/04 11:46:03;;;;;;;0.10;0.10;;;;;;;16.84;100.00;101970.19;10333640;28;20026;-73
2022/10/04 11:51:21;;;;;;;0.00;0.00;;;;;;;16.76;100.00;101964.81;10314451;28;20105;-73
2022/10/04 11:56:47;;;;;;;0.10;0.10;;;;;;;16.86;100.00;101948.47;10329853;28;20121;-73
2022/10/04 12:02:09;;;;;;;0.00;0.00;;;;;;;16.97;100.00;101950.78;10342780;28;20112;-73
2022/10/04 12:07:33;;;;;;;0.10;0.10;;;;;;;17.01;100.00;101930.56;10326461;28;20032;-73
2022/10/04 12:12:36;;;;;;;0.00;0.00;;;;;;;16.94;100.00;101935.81;10328597;28;20041;-72
2022/10/04 12:18:04;;;;;;;0.10;0.10;;;;;;;17.08;100.00;101920.81;10312088;28;20022;-73
2022/10/04 12:23:28;;;;;;;0.10;0.10;;;;;;;17.15;100.00;101902.91;10346067;28;20265;-73
2022/10/04 12:28:47;;;;;;;0.05;0.05;;;;;;;17.14;100.00;101903.13;10369292;28;20113;-73
2022/10/04 12:34:13;;;;;;;0.08;0.08;;;;;;;17.16;100.00;101895.69;10350856;28;20124;-73
2022/10/04 12:39:41;;;;;;;0.00;0.00;;;;;;;17.18;100.00;101899.88;10339561;28;20029;-73
2022/10/04 12:44:57;;;;;;;0.10;0.10;;;;;;;17.23;100.00;101903.91;10349848;28;20465;-73
2022/10/04 12:50:08;;;;;;;0.00;0.00;;;;;;;17.23;100.00;101893.97;10340136;28;20105;-73
2022/10/04 13:00:39;;;;;;;0.10;0.10;;;;;;;17.31;100.00;101893.94;10324957;28;20080;-77
2022/10/04 13:05:45;;;;;;;0.10;0.10;;;;;;;17.16;100.00;101891.16;10327560;28;20022;-76
2022/10/04 13:11:07;;;;;;;0.00;0.00;;;;;;;17.15;100.00;101897.53;10331385;28;20378;-76
2022/10/04 13:16:41;;;;;;;0.10;0.10;;;;;;;17.18;100.00;101882.88;10335236;28;20053;-76
2022/10/04 13:22:06;;;;;;;0.00;0.00;;;;;;;17.11;100.00;101879.25;10334825;28;20397;-76
2022/10/04 13:27:14;;;;;;;0.10;0.10;;;;;;;17.03;100.00;101850.50;10334740;28;20022;-76
2022/10/04 13:32:21;;;;;;;0.03;0.03;;;;;;;17.02;100.00;101846.16;10332984;28;20481;-76
2022/10/04 13:37:37;;;;;;;0.10;0.10;;;;;;;16.95;100.00;101840.59;10334458;28;20056;-76
2022/10/04 13:43:08;;;;;;;0.00;0.00;;;;;;;16.91;100.00;101838.47;10333212;28;20018;-76
2022/10/04 13:48:09;;;;;;;0.10;0.10;;;;;;;16.86;100.00;101840.84;10333715;28;20125;-76
2022/10/04 13:59:18;;;;;;;0.00;0.00;;;;;;;16.69;100.00;101807.75;10332856;28;20066;-76
2022/10/04 14:04:43;;;;;;;0.00;0.00;;;;;;;16.64;100.00;101816.38;10333895;28;20011;-76
2022/10/04 14:09:56;;;;;;;0.10;0.10;;;;;;;16.61;100.00;101808.66;10333510;28;20014;-76
2022/10/04 14:15:03;;;;;;;0.10;0.10;;;;;;;16.53;100.00;101804.13;10332216;28;20369;-76
2022/10/04 14:20:03;;;;;;;0.05;0.05;;;;;;;16.46;100.00;101805.84;10331703;28;20026;-75
2022/10/04 14:25:34;;;;;;;0.10;0.10;;;;;;;16.40;100.00;101797.63;10331462;28;20493;-76
2022/10/04 14:30:58;;;;;;;0.10;0.10;;;;;;;16.33;100.00;101802.03;10330610;28;20469;-76
2022/10/04 14:36:22;;;;;;;0.10;0.10;;;;;;;16.27;100.00;101812.47;10330470;28;20113;-76
2022/10/04 14:41:32;;;;;;;0.00;0.00;;;;;;;16.20;100.00;101819.56;10331555;28;20077;-76
2022/10/04 14:47:00;;;;;;;0.00;0.00;;;;;;;16.12;100.00;101795.38;10328961;28;20532;-76
2022/10/04 14:52:32;;;;;;;0.05;0.05;;;;;;;16.04;100.00;101804.28;10326418;28;20026;-76
2022/10/04 14:57:55;;;;;;;0.10;0.10;;;;;;;15.94;100.00;101786.66;10328035;28;20037;-76
2022/10/04 15:03:15;;;;;;;0.10;0.10;;;;;;;15.79;100.00;101784.66;10331001;28;20077;-76
2022/10/04 15:08:25;;;;;;;0.10;0.10;;;;;;;15.67;100.00;101777.13;10331127;28;20024;-76
2022/10/04 15:13:54;;;;;;;0.10;0.10;;;;;;;15.55;100.00;101792.72;10313253;28;20014;-76
2022/10/04 15:19:23;;;;;;;0.10;0.10;;;;;;;15.50;100.00;101795.06;10330169;28;20033;-76
2022/10/04 15:24:30;;;;;;;0.10;0.10;;;;;;;15.52;100.00;101798.44;10329519;28;20018;-75
2022/10/04 15:29:56;;;;;;;0.00;0.00;;;;;;;15.53;100.00;101800.09;10327710;28;20058;-76
2022/10/04 15:35:34;;;;;;;0.00;0.00;;;;;;;15.48;100.00;101775.63;10328647;28;20389;-76
2022/10/04 15:40:53;;;;;;;0.10;0.10;;;;;;;15.33;100.00;101784.34;10311904;28;20041;-76
2022/10/04 15:46:17;;;;;;;0.10;0.10;;;;;;;15.20;100.00;101765.19;10306882;28;20158;-76
2022/10/04 15:51:43;;;;;;;0.05;0.05;;;;;;;15.03;100.00;101752.78;10327711;28;20026;-76
2022/10/04 15:57:08;;;;;;;0.10;0.10;;;;;;;14.84;100.00;101757.44;10327954;28;20024;-75
2022/10/04 16:02:33;;;;;;;0.10;0.10;;;;;;;14.68;100.00;101752.03;10328803;28;20437;-76
2022/10/04 16:07:52;;;;;;;0.10;0.10;;;;;;;14.50;100.00;101754.81;10326776;28;20474;-76
2022/10/04 16:13:05;;;;;;;0.10;0.10;;;;;;;14.32;100.00;101751.38;10325201;28;20023;-75
2022/10/04 16:18:42;;;;;;;0.10;0.10;;;;;;;14.12;100.00;101756.97;10327020;28;20036;-76
2022/10/04 16:23:44;;;;;;;0.10;0.10;;;;;;;13.98;100.00;101754.91;10325929;28;20018;-75
2022/10/04 16:28:59;;;;;;;0.00;0.00;;;;;;;13.78;100.00;101738.19;10327675;28;20124;-74
2022/10/04 16:34:33;;;;;;;0.10;0.10;;;;;;;13.56;100.00;101732.38;10327329;28;20022;-76
2022/10/04 16:45:20;;;;;;;0.10;0.10;;;;;;;13.19;100.00;101721.03;10326952;28;20054;-74
2022/10/04 16:50:48;;;;;;;0.10;0.10;;;;;;;13.00;100.00;101724.69;10327029;28;20026;-77
2022/10/04 16:55:54;;;;;;;0.10;0.10;;;;;;;12.84;100.00;101722.72;10326717;28;20469;-76
2022/10/04 17:01:22;;;;;;;0.10;0.10;;;;;;;12.67;100.00;101706.50;10323072;28;20022;-76
2022/10/04 17:06:31;;;;;;;0.10;0.10;;;;;;;12.53;100.00;101730.22;10327396;28;20022;-77
2022/10/04 17:11:46;;;;;;;0.03;0.03;;;;;;;12.43;100.00;101724.94;10326405;28;20026;-76
2022/10/04 17:16:56;;;;;;;0.10;0.10;;;;;;;12.40;100.00;101727.91;10326898;28;20470;-77
2022/10/04 17:22:23;;;;;;;0.10;0.10;;;;;;;12.32;100.00;101734.00;10307210;28;20054;-76
2022/10/04 17:27:48;;;;;;;0.10;0.10;;;;;;;12.23;100.00;101737.56;10325976;28;20026;-73
2022/10/04 17:32:54;;;;;;;0.10;0.10;;;;;;;12.13;100.00;101724.25;10326035;28;20121;-74
2022/10/04 17:38:16;;;;;;;0.10;0.10;;;;;;;12.06;100.00;101733.81;10326774;28;20026;-75
2022/10/04 17:43:29;;;;;;;0.10;0.10;;;;;;;11.97;100.00;101724.03;10325965;28;20026;-75
2022/10/04 17:59:29;;;;;;;0.10;0.10;;;;;;;11.69;100.00;101753.31;10331171;28;20034;-73
2022/10/04 18:04:35;;;;;;;0.10;0.10;;;;;;;11.60;100.00;101756.81;10313086;28;20091;-74
2022/10/04 18:09:44;;;;;;;0.10;0.10;;;;;;;11.50;100.00;101745.34;10333612;28;20030;-75
2022/10/04 18:15:06;;;;;;;0.10;0.10;;;;;;;11.41;100.00;101741.69;10336948;28;20042;-73
2022/10/04 18:20:21;;;;;;;0.10;0.10;;;;;;;11.34;100.00;101740.56;10334069;28;20022;-75
2022/10/04 18:25:25;;;;;;;0.00;0.00;;;;;;;11.29;100.00;101708.16;10334051;28;20030;-75
2022/10/04 18:30:25;;;;;;;0.10;0.10;;;;;;;11.25;100.00;101712.91;10333751;28;20101;-74
2022/10/04 18:35:29;;;;;;;0.10;0.10;;;;;;;11.29;100.00;101701.00;10333756;28;20213;-75
2022/10/04 18:40:39;;;;;;;0.10;0.10;;;;;;;11.37;100.00;101688.75;10333500;28;20042;-74
2022/10/04 18:45:57;;;;;;;0.10;0.10;;;;;;;11.41;100.00;101677.69;10333371;28;20165;-75
2022/10/04 18:51:24;;;;;;;0.10;0.10;;;;;;;11.47;100.00;101711.78;10333101;28;20022;-75
2022/10/04 18:56:25;;;;;;;0.10;0.10;;;;;;;11.48;100.00;101717.94;10315104;28;20026;-75
2022/10/04 19:01:58;;;;;;;0.00;0.00;;;;;;;11.46;100.00;101739.44;10384470;23;20125;-73
2022/10/04 19:07:08;;;;;;;0.10;0.10;;;;;;;11.43;100.00;101773.56;10374883;28;20112;-74
2022/10/04 19:12:17;;;;;;;0.10;0.10;;;;;;;11.39;100.00;101785.50;10371845;28;20029;-74
2022/10/04 19:17:24;;;;;;;0.08;0.08;;;;;;;11.38;100.00;101755.31;10371773;28;20021;-74
2022/10/04 19:22:42;;;;;;;0.00;0.00;;;;;;;11.33;100.00;101721.06;10370922;28;20017;-73
2022/10/04 19:27:50;;;;;;;0.10;0.10;;;;;;;11.25;100.00;101722.75;10371656;28;20028;-75
2022/10/04 19:33:10;;;;;;;0.10;0.10;;;;;;;11.18;100.00;101722.47;10370512;28;20022;-72
2022/10/04 19:38:19;;;;;;;0.03;0.03;;;;;;;11.12;100.00;101716.88;10350900;28;20515;-74
2022/10/04 19:43:31;;;;;;;0.10;0.10;;;;;;;11.05;100.00;101724.56;10370475;28;20373;-73
2022/10/04 19:48:49;;;;;;;0.10;0.10;;;;;;;10.99;100.00;101733.97;10353369;28;20503;-74
2022/10/04 19:53:56;;;;;;;0.10;0.10;;;;;;;10.96;100.00;101728.09;10370367;28;20041;-74
2022/10/04 19:59:09;;;;;;;0.10;0.10;;;;;;;10.92;100.00;101735.53;10369481;28;20120;-74
2022/10/04 20:09:36;;;;;;;0.10;0.10;;;;;;;10.88;100.00;101723.47;10371060;28;20033;-74
2022/10/04 20:14:39;;;;;;;0.13;0.13;;;;;;;10.90;100.00;101739.31;10369993;28;20428;-74
2022/10/04 20:19:40;;;;;;;0.10;0.10;;;;;;;10.93;100.00;101736.38;10349307;28;20032;-72
2022/10/04 20:24:40;;;;;;;0.10;0.10;;;;;;;10.96;100.00;101723.59;10368552;28;20028;-74
2022/10/04 20:29:40;;;;;;;0.10;0.10;;;;;;;11.00;100.00;101710.84;10369485;28;20022;-74
2022/10/04 20:34:40;;;;;;;0.10;0.10;;;;;;;11.03;100.00;101692.75;10351355;28;20121;-74
2022/10/04 20:39:42;;;;;;;0.10;0.10;;;;;;;11.09;100.00;101692.19;10370353;28;20022;-74
2022/10/04 20:44:53;;;;;;;0.10;0.10;;;;;;;11.16;100.00;101678.28;10370257;28;20384;-74
2022/10/04 20:49:56;;;;;;;0.08;0.08;;;;;;;11.20;100.00;101666.31;10367755;28;20080;-74
2022/10/04 20:55:00;;;;;;;0.10;0.10;;;;;;;11.25;100.00;101646.25;10351583;28;20504;-74
2022/10/04 21:00:04;;;;;;;0.10;0.10;;;;;;;11.29;100.00;101668.16;10352256;28;20039;-74
2022/10/04 21:05:23;;;;;;;0.10;0.10;;;;;;;11.33;100.00;101669.53;10371077;28;20057;-74
2022/10/04 21:10:23;;;;;;;0.10;0.10;;;;;;;11.36;100.00;101679.94;10369761;28;20036;-74
2022/10/04 21:15:24;;;;;;;0.10;0.10;;;;;;;11.39;100.00;101687.63;10349632;28;20041;-74
2022/10/04 21:20:40;;;;;;;0.00;0.00;;;;;;;11.41;100.00;101703.50;10368608;28;20026;-73
2022/10/04 21:25:41;;;;;;;0.10;0.10;;;;;;;11.44;100.00;101700.56;10368437;28;20452;-74
2022/10/04 21:30:41;;;;;;;0.00;0.00;;;;;;;11.52;100.00;101704.19;10370562;28;20076;-74
2022/10/04 21:35:41;;;;;;;0.10;0.10;;;;;;;11.63;100.00;101702.31;10376391;28;20025;-74
2022/10/04 21:40:41;;;;;;;0.10;0.10;;;;;;;11.71;100.00;101691.78;10376493;28;20116;-74
2022/10/04 21:45:42;;;;;;;0.10;0.10;;;;;;;11.72;100.00;101702.31;10357454;28;20064;-74
2022/10/04 21:50:42;;;;;;;0.10;0.10;;;;;;;11.73;100.00;101690.66;10374608;28;20041;-74
2022/10/04 21:55:43;;;;;;;0.10;0.10;;;;;;;11.74;100.00;101700.31;10356303;28;20083;-74
2022/10/04 22:00:43;;;;;;;0.10;0.10;;;;;;;11.79;100.00;101679.38;10375044;28;20025;-74
2022/10/04 22:05:43;;;;;;;0.10;0.10;;;;;;;11.85;100.00;101679.78;10357041;28;20358;-74
2022/10/04 22:10:45;;;;;;;0.10;0.10;;;;;;;11.91;100.00;101676.56;10374788;28;20515;-74
2022/10/04 22:15:45;;;;;;;0.10;0.10;;;;;;;11.96;100.00;101666.28;10372022;28;20072;-74
2022/10/04 22:20:45;;;;;;;0.10;0.10;;;;;;;11.99;100.00;101676.69;10371650;28;20488;-74
2022/10/04 22:25:46;;;;;;;0.10;0.10;;;;;;;12.04;100.00;101666.38;10373163;28;20447;-74
2022/10/04 22:30:52;;;;;;;0.10;0.10;;;;;;;12.09;100.00;101642.75;10356105;28;20037;-74
2022/10/04 22:35:55;;;;;;;0.10;0.10;;;;;;;12.13;100.00;101646.81;10355223;28;20026;-74
2022/10/04 22:40:56;;;;;;;0.10;0.10;;;;;;;12.16;100.00;101635.81;10372336;28;20045;-74
2022/10/04 22:45:56;;;;;;;0.10;0.10;;;;;;;12.26;100.00;101629.56;10371915;28;20067;-74
2022/10/04 22:50:57;;;;;;;0.10;0.10;;;;;;;12.31;100.00;101632.66;10354502;28;20069;-74
2022/10/04 22:55:57;;;;;;;0.00;0.00;;;;;;;12.37;100.00;101634.72;10372180;28;20026;-74
2022/10/04 23:00:59;;;;;;;0.00;0.00;;;;;;;12.42;100.00;101632.41;10354386;28;20025;-72
2022/10/04 23:06:01;;;;;;;0.05;0.05;;;;;;;12.46;100.00;101636.47;10372032;28;20026;-74
2022/10/04 23:11:01;;;;;;;0.10;0.10;;;;;;;12.48;100.00;101631.81;10373236;28;20049;-74
2022/10/04 23:16:21;;;;;;;0.10;0.10;;;;;;;12.48;100.00;101625.63;10373058;28;20076;-74
2022/10/04 23:21:24;;;;;;;0.10;0.10;;;;;;;12.44;100.00;101625.09;10370960;28;20484;-74
2022/10/04 23:26:36;;;;;;;0.10;0.10;;;;;;;12.42;100.00;101616.38;10373173;28;20025;-74
2022/10/04 23:31:36;;;;;;;0.10;0.10;;;;;;;12.44;100.00;101609.88;10354333;28;20121;-74
2022/10/04 23:36:37;;;;;;;0.10;0.10;;;;;;;12.46;100.00;101607.91;10370983;28;20026;-74
2022/10/04 23:41:37;;;;;;;0.10;0.10;;;;;;;12.54;100.00;101614.34;10370493;28;20018;-74
2022/10/04 23:46:37;;;;;;;0.10;0.10;;;;;;;12.61;100.00;101607.38;10370225;28;20024;-74
2022/10/04 23:51:38;;;;;;;0.10;0.10;;;;;;;12.64;100.00;101599.88;10351775;28;20473;-74
2022/10/04 23:56:44;;;;;;;0.10;0.10;;;;;;;12.65;100.00;101598.03;10369821;28;20277;-74
